Time;durP1;ratioP1;P1;durP2;ratioP2;P2;SDS_P1;SDS_P2;PMS_P1;PMS_P2;Temp;Humidity;BMP_temperature;BMP_pressure;BME280_temperature;BME280_humidity;BME280_pressure;Samples;Min_cycle;Max_cycle;Signal;HPM_P1;HPM_P2
2022/12/26 00:01:48;;;;;;;27.10;17.27;;;4.60;99.90;;;4.22;86.68;100563.75;5073435;28;20209;-69
2022/12/26 00:04:17;;;;;;;28.33;17.60;;;4.60;99.90;;;4.20;87.04;100557.78;5066931;28;20197;-69
2022/12/26 00:07:06;;;;;;;31.27;17.97;;;4.60;99.90;;;4.19;86.85;100561.13;5073133;28;20189;-69
2022/12/26 00:09:35;;;;;;;29.43;17.70;;;4.50;99.90;;;4.20;86.71;100567.97;5076944;28;20221;-69
2022/12/26 00:12:04;;;;;;;31.03;18.03;;;4.60;99.90;;;4.19;86.45;100563.69;5075138;28;20209;-70
2022/12/26 00:14:32;;;;;;;29.23;18.07;;;4.50;99.90;;;4.18;86.78;100554.31;5071568;28;20229;-69
2022/12/26 00:17:02;;;;;;;28.37;18.07;;;4.50;99.90;;;4.17;86.52;100555.16;5064781;28;20704;-69
2022/12/26 00:19:31;;;;;;;27.90;17.23;;;4.50;99.90;;;4.17;86.36;100552.59;5068643;28;20327;-68
2022/12/26 00:21:59;;;;;;;28.93;16.77;;;4.50;99.90;;;4.16;86.83;100548.34;5071761;28;20568;-67
2022/12/26 00:24:28;;;;;;;26.93;16.53;;;4.50;99.90;;;4.16;86.44;100544.91;5072511;28;20205;-66
2022/12/26 00:26:56;;;;;;;28.50;17.93;;;4.50;99.90;;;4.15;86.21;100543.19;5069262;28;20248;-69
2022/12/26 00:29:25;;;;;;;26.00;16.20;;;4.50;99.90;;;4.17;86.33;100551.75;5071578;28;20556;-68
2022/12/26 00:31:53;;;;;;;27.23;16.53;;;4.50;99.90;;;4.15;86.79;100553.38;5070985;28;20248;-67
2022/12/26 00:34:23;;;;;;;28.60;17.33;;;4.50;99.90;;;4.15;86.48;100538.94;5071976;28;20354;-68
2022/12/26 00:36:51;;;;;;;29.40;18.27;;;4.50;99.90;;;4.16;86.63;100537.25;5069674;28;20288;-66
2022/12/26 00:39:20;;;;;;;30.43;18.00;;;4.50;99.90;;;4.14;86.75;100532.13;5072393;28;20224;-68
2022/12/26 00:41:48;;;;;;;28.23;17.57;;;4.50;99.90;;;4.14;86.18;100537.22;5070164;28;20213;-69
2022/12/26 00:44:17;;;;;;;30.40;18.73;;;4.50;99.90;;;4.14;86.58;100542.34;5071984;28;20205;-66
2022/12/26 00:46:45;;;;;;;33.93;17.83;;;4.50;99.90;;;4.13;86.49;100539.75;5053044;28;20205;-69
2022/12/26 00:49:14;;;;;;;26.77;18.03;;;4.50;99.90;;;4.12;86.73;100538.88;5071142;28;20213;-66
2022/12/26 00:51:44;;;;;;;31.90;18.30;;;4.50;99.90;;;4.11;86.93;100542.25;5069347;28;20205;-69
2022/12/26 00:54:12;;;;;;;30.73;17.97;;;4.50;99.90;;;4.09;87.00;100541.38;5069683;28;20232;-68
2022/12/26 00:56:41;;;;;;;29.07;18.13;;;4.50;99.90;;;4.11;87.36;100550.75;5070736;28;20719;-68
2022/12/26 00:59:09;;;;;;;31.07;18.37;;;4.50;99.90;;;4.12;87.37;100543.97;5072011;28;20229;-70
2022/12/26 01:01:37;;;;;;;29.93;18.27;;;4.50;99.90;;;4.12;87.51;100531.22;5071271;28;20228;-67
2022/12/26 01:04:06;;;;;;;31.47;18.47;;;4.50;99.90;;;4.15;87.09;100527.88;5070311;28;20300;-69
2022/12/26 01:06:35;;;;;;;31.23;17.83;;;4.50;99.90;;;4.17;87.17;100516.03;5070822;28;20287;-69
2022/12/26 01:09:05;;;;;;;29.17;17.67;;;4.50;99.90;;;4.18;87.14;100518.63;5071130;28;20316;-66
2022/12/26 01:11:42;;;;;;;31.10;18.50;;;4.50;99.90;;;4.18;86.48;100508.41;5065353;28;20219;-68
2022/12/26 01:14:14;;;;;;;32.23;17.73;;;4.50;99.90;;;4.16;86.94;100509.19;5071526;28;20216;-68
2022/12/26 01:16:45;;;;;;;28.63;16.57;;;4.50;99.90;;;4.15;86.84;100493.03;5071286;28;20197;-68
2022/12/26 01:19:14;;;;;;;30.77;18.03;;;4.50;99.90;;;4.15;87.26;100497.28;5071497;28;20668;-67
2022/12/26 01:21:43;;;;;;;28.37;17.43;;;4.50;99.90;;;4.15;86.63;100495.59;5068837;28;20197;-68
2022/12/26 01:24:13;;;;;;;29.27;18.03;;;4.50;99.90;;;4.17;87.33;100503.28;5070107;28;20205;-70
2022/12/26 01:26:42;;;;;;;32.57;17.90;;;4.50;99.90;;;4.16;86.91;100494.78;5070250;28;21449;-71
2022/12/26 01:29:10;;;;;;;31.90;18.03;;;4.50;99.90;;;4.15;86.50;100482.84;5069551;28;20587;-69
2022/12/26 01:31:39;;;;;;;31.40;17.93;;;4.50;99.90;;;4.17;86.88;100491.41;5068553;28;20213;-69
2022/12/26 01:34:08;;;;;;;32.53;17.80;;;4.50;99.90;;;4.18;86.76;100476.97;5071300;28;20328;-68
2022/12/26 01:36:36;;;;;;;27.83;16.93;;;4.60;99.90;;;4.16;86.92;100481.16;5082942;28;20232;-68
2022/12/26 01:39:06;;;;;;;28.20;17.37;;;4.60;99.90;;;4.17;86.96;100486.31;5056516;28;20272;-65
2022/12/26 01:41:36;;;;;;;25.77;17.30;;;4.50;99.90;;;4.19;87.66;100484.63;5061501;28;21005;-70
2022/12/26 01:44:27;;;;;;;32.63;18.07;;;4.60;99.90;;;4.18;86.83;100485.47;5070846;28;20624;-66
2022/12/26 01:46:55;;;;;;;30.13;17.77;;;4.50;99.90;;;4.19;86.69;100483.78;5069448;28;20263;-69
2022/12/26 01:49:32;;;;;;;34.33;19.37;;;4.60;99.90;;;4.22;86.77;100494.91;5069750;28;20206;-68
2022/12/26 01:52:06;;;;;;;28.87;16.93;;;4.60;99.90;;;4.20;86.65;100483.81;5068699;28;20212;-69
2022/12/26 01:54:38;;;;;;;30.60;18.13;;;4.60;99.90;;;4.20;86.58;100471.06;5068567;28;20577;-67
2022/12/26 01:57:16;;;;;;;31.43;18.47;;;4.60;99.90;;;4.20;86.97;100476.16;5066580;28;20576;-69
2022/12/26 01:59:48;;;;;;;32.17;17.77;;;4.60;99.90;;;4.20;86.87;100471.06;5069189;28;20615;-66
2022/12/26 02:02:18;;;;;;;29.17;17.13;;;4.60;99.90;;;4.20;87.16;100475.28;5070359;28;20697;-70
2022/12/26 02:07:43;;;;;;;26.27;17.37;;;4.60;99.90;;;4.23;87.28;100468.56;5068117;28;20216;-69
2022/12/26 02:10:17;;;;;;;32.73;18.90;;;4.60;99.90;;;4.26;87.40;100460.13;5069320;28;20208;-67
2022/12/26 02:12:49;;;;;;;32.50;17.53;;;4.70;99.90;;;4.27;87.00;100457.63;5067721;28;20212;-68
2022/12/26 02:15:18;;;;;;;29.17;18.80;;;4.60;99.90;;;4.27;86.50;100457.63;5067275;28;20219;-67
2022/12/26 02:17:47;;;;;;;27.10;18.03;;;4.60;99.90;;;4.27;86.79;100457.63;5066654;28;20318;-69
2022/12/26 02:20:23;;;;;;;28.03;17.63;;;4.60;99.90;;;4.29;86.88;100445.72;5069472;28;20213;-68
2022/12/26 02:23:37;;;;;;;30.10;18.03;;;4.60;99.90;;;4.27;86.83;100451.63;5070355;28;20265;-66
2022/12/26 02:27:15;;;;;;;29.97;18.47;;;4.60;99.90;;;4.28;86.65;100438.91;5070700;28;20662;-68
2022/12/26 02:30:25;;;;;;;29.60;18.57;;;4.60;99.90;;;4.25;87.05;100428.66;5056305;28;20197;-68
2022/12/26 02:33:26;;;;;;;30.07;18.60;;;4.60;99.90;;;4.24;87.47;100424.38;5067420;28;20229;-65
2022/12/26 02:36:26;;;;;;;33.00;19.00;;;4.60;99.90;;;4.26;87.06;100409.97;5059069;28;20213;-69
2022/12/26 02:39:11;;;;;;;26.10;17.53;;;4.60;99.90;;;4.26;86.83;100426.97;5069734;28;20510;-68
2022/12/26 02:42:13;;;;;;;31.47;19.20;;;4.60;99.90;;;4.27;87.47;100406.59;5062101;28;20254;-69
2022/12/26 02:47:53;;;;;;;29.20;19.03;;;4.60;99.90;;;4.27;87.45;100401.50;5067725;28;20209;-68
2022/12/26 03:14:15;;;;;;;29.87;18.27;;;4.70;99.90;;;4.31;86.61;100357.38;5026175;28;20237;-69
2022/12/26 03:19:56;;;;;;;27.67;16.53;;;4.70;99.90;;;4.33;86.94;100354.81;5067398;28;20235;-70
2022/12/26 03:22:33;;;;;;;27.73;17.43;;;4.70;99.90;;;4.32;87.15;100351.41;5067096;28;20685;-66
2022/12/26 03:27:54;;;;;;;30.80;17.80;;;4.70;99.90;;;4.32;86.97;100332.72;5068256;28;20245;-67
2022/12/26 03:34:16;;;;;;;22.93;15.50;;;4.70;99.90;;;4.30;86.78;100330.13;5065409;28;20233;-69
2022/12/26 03:35:57;;;;;;;25.30;15.43;;;4.70;99.90;;;4.29;87.37;100308.00;5068305;28;20590;-68
2022/12/26 03:38:34;;;;;;;23.23;15.07;;;4.70;99.90;;;4.28;87.27;100296.09;5062674;28;20902;-71
2022/12/26 04:19:26;;;;;;;23.53;14.70;;;4.60;99.90;;;4.23;87.35;100238.16;5071997;28;20723;-67
2022/12/26 04:44:50;;;;;;;22.37;14.53;;;4.50;99.90;;;4.10;88.07;100179.31;5070948;28;20209;-66
2022/12/26 04:47:20;;;;;;;24.00;14.40;;;4.50;99.90;;;4.11;88.03;100175.06;5072046;28;20726;-68
2022/12/26 04:55:17;;;;;;;19.97;14.20;;;4.50;99.90;;;4.11;87.52;100159.75;5070509;28;20197;-66
2022/12/26 04:57:45;;;;;;;19.93;13.57;;;4.60;99.90;;;4.11;87.90;100150.41;5071390;28;20236;-67
2022/12/26 05:00:15;;;;;;;20.77;13.67;;;4.50;99.90;;;4.11;87.46;100144.47;5069563;28;20709;-68
2022/12/26 05:11:28;;;;;;;18.23;12.07;;;4.50;99.90;;;4.10;88.14;100127.47;5070615;28;20673;-69
2022/12/26 05:13:58;;;;;;;17.20;12.20;;;4.50;99.90;;;4.08;88.09;100129.97;5072651;28;20296;-69
2022/12/26 05:30:27;;;;;;;14.23;10.37;;;4.40;99.90;;;4.01;87.82;100096.69;5064003;28;20205;-67
2022/12/26 05:35:42;;;;;;;15.10;11.83;;;4.40;99.90;;;3.99;87.82;100058.47;5071827;28;20544;-67
2022/12/26 05:38:12;;;;;;;14.57;10.53;;;4.40;99.90;;;4.00;88.05;100046.56;5059100;28;20237;-69
2022/12/26 05:40:40;;;;;;;15.30;10.77;;;4.40;99.90;;;4.00;88.45;100049.13;5062442;28;20246;-68
2022/12/26 05:43:09;;;;;;;14.43;10.70;;;4.40;99.90;;;4.01;88.61;100061.88;5069519;28;20202;-70
2022/12/26 05:45:37;;;;;;;16.07;10.27;;;4.50;99.90;;;4.03;88.00;100085.72;5071912;28;20233;-70
2022/12/26 05:48:06;;;;;;;14.13;10.17;;;4.40;99.90;;;4.04;88.64;100076.38;5068885;28;20205;-67
2022/12/26 05:50:35;;;;;;;16.70;11.23;;;4.40;99.90;;;4.05;88.56;100080.63;5069779;28;20266;-69
2022/12/26 05:53:04;;;;;;;17.33;10.87;;;4.40;99.90;;;4.05;88.08;100090.81;5067653;28;20353;-69
2022/12/26 05:55:33;;;;;;;16.00;11.20;;;4.50;99.90;;;4.05;88.28;100093.38;5056935;28;20714;-68
2022/12/26 05:58:01;;;;;;;13.50;10.23;;;4.50;99.90;;;4.10;88.25;100091.75;5059867;28;20225;-69
2022/12/26 06:00:31;;;;;;;14.87;10.50;;;4.50;99.90;;;4.10;88.37;100076.47;5066747;28;20652;-68
2022/12/26 06:03:00;;;;;;;13.77;9.67;;;4.50;99.90;;;4.11;88.32;100053.53;5069902;28;20209;-69
2022/12/26 06:05:29;;;;;;;12.00;8.83;;;4.50;99.90;;;4.10;88.04;100056.06;5069968;28;20271;-68
2022/12/26 06:07:58;;;;;;;12.83;9.90;;;4.50;99.90;;;4.09;87.88;100060.31;5068021;28;20237;-69
2022/12/26 06:10:28;;;;;;;11.13;8.73;;;4.50;99.90;;;4.08;88.00;100056.03;5069502;28;20223;-69
2022/12/26 06:12:57;;;;;;;12.87;10.07;;;4.50;99.90;;;4.08;88.32;100047.53;5068500;28;20653;-69
2022/12/26 06:15:25;;;;;;;12.93;9.43;;;4.50;99.90;;;4.09;88.54;100059.47;5069111;28;20279;-67
2022/12/26 06:17:55;;;;;;;13.53;8.60;;;4.50;99.90;;;4.10;88.31;100062.03;5068030;28;20225;-68
2022/12/26 06:20:24;;;;;;;12.50;9.40;;;4.50;99.90;;;4.13;88.25;100076.53;5070249;28;20281;-67
2022/12/26 06:22:52;;;;;;;11.77;8.47;;;4.50;99.90;;;4.15;88.79;100086.72;5068422;28;20510;-70
2022/12/26 06:25:21;;;;;;;11.83;9.43;;;4.50;99.90;;;4.18;88.67;100086.78;5070275;28;20217;-66
2022/12/26 06:27:51;;;;;;;10.73;8.67;;;4.50;99.90;;;4.19;87.97;100091.03;5068100;28;20521;-67
2022/12/26 06:30:19;;;;;;;10.77;8.70;;;4.60;99.90;;;4.21;88.14;100087.69;5070469;28;20316;-66
2022/12/26 06:32:48;;;;;;;10.43;7.77;;;4.60;99.90;;;4.21;88.03;100057.09;5068084;28;20673;-67
2022/12/26 06:35:16;;;;;;;11.07;8.13;;;4.60;99.90;;;4.24;88.21;100033.31;5071502;28;20201;-67
2022/12/26 06:37:45;;;;;;;10.00;7.73;;;4.60;99.90;;;4.21;87.81;100029.03;5067533;28;20769;-68
2022/12/26 06:40:14;;;;;;;11.60;8.37;;;4.60;99.90;;;4.21;87.88;100013.72;5069453;28;20206;-68
2022/12/26 06:42:42;;;;;;;10.90;8.67;;;4.60;99.90;;;4.23;88.16;100013.72;5066134;28;20213;-68
2022/12/26 06:45:13;;;;;;;9.40;7.20;;;4.60;99.90;;;4.23;88.20;100024.78;5069318;28;20205;-67
2022/12/26 06:47:41;;;;;;;11.13;7.97;;;4.60;99.90;;;4.26;88.25;100021.44;5069343;28;20197;-67
2022/12/26 06:50:10;;;;;;;10.93;8.13;;;4.60;99.90;;;4.24;88.24;99975.53;5068625;28;20201;-70
2022/12/26 06:52:39;;;;;;;9.47;7.10;;;4.60;99.90;;;4.27;88.19;100006.16;5070903;28;20256;-72
2022/12/26 06:55:08;;;;;;;9.07;7.63;;;4.60;99.90;;;4.24;87.45;99998.47;5071916;28;20266;-70
2022/12/26 06:57:37;;;;;;;9.30;7.33;;;4.60;99.90;;;4.28;87.46;100009.56;5067861;28;20225;-72
2022/12/26 07:00:09;;;;;;;10.10;7.53;;;4.60;99.90;;;4.26;87.97;99991.69;5069363;28;20221;-71
2022/12/26 07:02:39;;;;;;;9.13;7.50;;;4.70;99.90;;;4.30;88.01;99995.13;5065337;28;20258;-70
2022/12/26 07:05:09;;;;;;;12.37;8.30;;;4.70;99.90;;;4.31;87.87;99997.72;5070676;28;20205;-69
2022/12/26 07:07:37;;;;;;;9.30;7.57;;;4.70;99.90;;;4.32;87.89;100004.53;5068946;28;20205;-71
2022/12/26 07:10:07;;;;;;;10.23;7.57;;;4.70;99.90;;;4.33;87.10;99997.72;5069174;28;20263;-70
2022/12/26 07:12:36;;;;;;;12.63;8.30;;;4.70;99.90;;;4.34;87.28;99979.91;5069791;28;20200;-70
2022/12/26 07:15:08;;;;;;;11.20;8.17;;;4.70;99.90;;;4.34;87.17;99954.41;5069792;28;20205;-69
2022/12/26 07:17:39;;;;;;;11.07;8.03;;;4.70;99.90;;;4.34;87.75;99951.84;5070187;28;20221;-73
2022/12/26 07:20:10;;;;;;;10.70;8.50;;;4.70;99.90;;;4.33;87.66;99957.78;5069394;28;20254;-68
2022/12/26 07:22:41;;;;;;;10.23;8.47;;;4.70;99.90;;;4.35;87.18;99979.06;5068455;28;20205;-70
2022/12/26 07:25:10;;;;;;;9.80;8.73;;;4.70;99.90;;;4.35;87.32;99968.00;5063807;28;20278;-67
2022/12/26 07:27:38;;;;;;;10.37;8.70;;;4.70;99.90;;;4.35;86.99;99973.97;5066857;28;20302;-69
2022/12/26 07:30:09;;;;;;;10.27;8.27;;;4.80;99.90;;;4.37;87.34;99958.66;5068169;28;20205;-70
2022/12/26 07:32:39;;;;;;;9.87;8.30;;;4.80;99.90;;;4.40;87.17;99957.84;5064625;28;20284;-69
2022/12/26 07:35:08;;;;;;;9.80;8.60;;;4.80;99.90;;;4.42;87.24;99953.59;5067912;28;20618;-69
2022/12/26 07:37:37;;;;;;;12.20;9.00;;;4.80;99.90;;;4.42;87.51;99933.19;5067379;28;20225;-69
2022/12/26 07:40:08;;;;;;;10.73;8.87;;;4.80;99.90;;;4.43;87.08;99953.66;5070869;28;20714;-68
2022/12/26 07:42:37;;;;;;;13.57;9.03;;;4.80;99.90;;;4.47;87.47;99952.84;5067290;28;20197;-68
2022/12/26 07:45:07;;;;;;;11.00;7.93;;;4.90;99.90;;;4.49;86.80;99965.59;5076313;28;20266;-69
2022/12/26 07:47:36;;;;;;;11.73;8.90;;;4.90;99.90;;;4.51;87.23;99961.38;5070114;28;20217;-68
2022/12/26 07:50:08;;;;;;;11.68;9.77;;;4.90;99.90;;;4.56;87.46;99967.38;5069380;28;20882;-69
2022/12/26 07:52:37;;;;;;;10.73;8.70;;;4.90;99.90;;;4.57;87.06;99966.56;5063977;28;20240;-71
2022/12/26 07:55:07;;;;;;;10.47;7.93;;;5.00;99.90;;;4.61;86.96;99983.63;5072316;28;20631;-70
2022/12/26 07:57:36;;;;;;;11.35;8.73;;;5.00;99.90;;;4.64;86.46;99959.81;5079754;28;20449;-70
2022/12/26 08:00:17;;;;;;;10.67;8.30;;;5.00;99.90;;;4.63;86.76;99966.63;5082572;28;20547;-70
2022/12/26 08:02:48;;;;;;;12.15;9.30;;;5.00;99.90;;;4.65;86.82;99957.28;5082231;28;20931;-69
2022/12/26 08:05:19;;;;;;;10.80;8.50;;;5.00;99.90;;;4.66;86.20;99938.59;5082002;28;20205;-71
2022/12/26 08:07:48;;;;;;;12.23;8.80;;;5.00;99.90;;;4.68;86.52;99944.56;5073771;28;20205;-71
2022/12/26 08:10:17;;;;;;;13.35;10.32;;;5.00;99.90;;;4.68;86.49;99936.91;5087055;28;20464;-71
2022/12/26 08:12:46;;;;;;;11.70;9.60;;;5.10;99.90;;;4.73;86.65;99939.50;5076852;28;20205;-73
2022/12/26 08:15:15;;;;;;;11.15;8.85;;;5.10;99.90;;;4.75;86.50;99936.16;5079962;28;20461;-71
2022/12/26 08:17:45;;;;;;;12.23;10.23;;;5.10;99.90;;;4.79;86.56;99943.00;5076806;28;20469;-71
2022/12/26 08:20:14;;;;;;;13.93;9.07;;;5.20;99.90;;;4.82;86.11;99943.03;5082156;28;20213;-72
2022/12/26 08:22:45;;;;;;;10.57;8.73;;;5.20;99.90;;;4.87;86.19;99945.63;5077351;28;20605;-72
2022/12/26 08:25:14;;;;;;;12.57;8.27;;;5.20;99.90;;;4.90;85.91;99960.09;5074644;28;20198;-72
2022/12/26 08:27:49;;;;;;;13.03;9.03;;;5.20;99.90;;;4.91;85.61;99947.34;5070254;28;20205;-72
2022/12/26 08:30:18;;;;;;;14.80;9.83;;;5.20;99.90;;;4.94;86.19;99932.06;5072760;28;20201;-73
2022/12/26 08:32:46;;;;;;;12.97;8.57;;;5.30;99.90;;;5.02;86.11;99927.03;5110346;22;20229;-73
2022/12/26 08:35:15;;;;;;;11.87;9.00;;;5.30;99.90;;;5.06;86.08;99906.63;5102598;28;20225;-74
2022/12/26 08:37:46;;;;;;;12.13;8.70;;;5.40;99.90;;;5.10;86.13;99904.97;5127709;27;20295;-71
2022/12/26 08:40:15;;;;;;;10.77;9.37;;;5.40;99.90;;;5.12;85.78;99916.06;5113377;28;20225;-72
2022/12/26 08:43:00;;;;;;;14.43;9.83;;;5.50;99.90;;;5.15;85.94;99905.00;5109405;28;20204;-70
2022/12/26 08:45:58;;;;;;;10.97;8.50;;;5.50;99.90;;;5.16;85.83;99912.69;5107491;28;20208;-72
2022/12/26 08:48:28;;;;;;;11.73;9.33;;;5.50;99.90;;;5.19;86.07;99914.38;5103685;28;20196;-71
2022/12/26 08:51:00;;;;;;;13.10;9.33;;;5.50;99.90;;;5.19;85.87;99912.72;5114184;28;20208;-72
2022/12/26 08:53:34;;;;;;;12.13;9.70;;;5.60;99.90;;;5.20;86.04;99899.09;5100225;27;20203;-69
2022/12/26 08:56:05;;;;;;;14.70;9.97;;;5.60;99.90;;;5.21;86.18;99882.91;5114149;28;20271;-72
2022/12/26 08:58:35;;;;;;;13.30;10.20;;;5.60;99.90;;;5.26;86.35;99877.84;5112494;28;20676;-71
2022/12/26 09:01:09;;;;;;;14.83;10.30;;;5.60;99.90;;;5.30;86.59;99880.44;5095650;28;20220;-75
2022/12/26 09:03:39;;;;;;;13.17;9.80;;;5.70;99.90;;;5.38;86.16;99877.09;5112163;28;20686;-72
2022/12/26 09:06:09;;;;;;;14.83;10.43;;;5.70;99.90;;;5.40;85.97;99876.22;5111995;28;20623;-72
2022/12/26 09:08:42;;;;;;;19.33;9.93;;;5.70;99.90;;;5.43;85.81;99878.81;5110929;28;20222;-73
2022/12/26 09:11:13;;;;;;;15.13;10.20;;;5.80;99.90;;;5.44;85.95;99875.41;5113067;28;20204;-70
2022/12/26 09:13:46;;;;;;;14.47;10.33;;;5.80;99.90;;;5.49;85.98;99883.13;5111448;28;20203;-74
2022/12/26 09:16:17;;;;;;;13.93;9.37;;;5.90;99.90;;;5.48;85.72;99869.47;5106920;28;20196;-73
2022/12/26 09:18:52;;;;;;;16.87;10.07;;;5.90;99.90;;;5.50;85.30;99872.91;5096826;28;20223;-74
2022/12/26 09:21:21;;;;;;;13.93;10.00;;;5.90;99.90;;;5.49;85.26;99865.22;5096850;28;20499;-73
2022/12/26 09:23:56;;;;;;;13.67;9.73;;;5.90;99.90;;;5.51;85.31;99860.97;5097134;28;20196;-72
2022/12/26 09:26:27;;;;;;;14.23;9.80;;;5.90;99.90;;;5.51;85.36;99863.53;5107988;28;20191;-75
2022/12/26 09:28:58;;;;;;;15.90;10.23;;;5.90;99.90;;;5.54;85.84;99858.44;5112087;28;20280;-74
2022/12/26 09:31:30;;;;;;;12.90;9.57;;;5.90;99.90;;;5.52;85.74;99858.44;5107767;28;20413;-72
2022/12/26 09:34:07;;;;;;;15.93;10.77;;;5.90;99.90;;;5.54;85.73;99854.19;4991313;28;20235;-69
2022/12/26 09:36:38;;;;;;;15.10;10.00;;;5.90;99.90;;;5.56;85.26;99852.50;4985362;28;20967;-73
2022/12/26 09:39:08;;;;;;;15.60;10.80;;;5.90;99.90;;;5.61;85.59;99849.09;4987286;28;20599;-70
2022/12/26 09:41:58;;;;;;;13.87;9.33;;;6.00;99.90;;;5.65;85.49;99831.22;4986452;28;20212;-66
2022/12/26 09:44:42;;;;;;;16.63;10.10;;;6.00;99.90;;;5.70;85.73;99844.88;4988990;28;20222;-70
2022/12/26 09:47:29;;;;;;;16.53;10.93;;;6.10;99.90;;;5.71;85.50;99840.66;4988057;28;20663;-65
2022/12/26 09:50:03;;;;;;;16.57;10.30;;;6.10;99.90;;;5.71;85.52;99866.22;5036124;28;20279;-65
2022/12/26 09:52:42;;;;;;;15.97;10.57;;;6.10;99.90;;;5.69;85.45;99853.41;4989888;28;20625;-65
2022/12/26 09:55:30;;;;;;;17.03;10.67;;;6.10;99.90;;;5.71;85.73;99849.16;4985670;28;20257;-68
2022/12/26 09:58:05;;;;;;;15.63;11.13;;;6.10;99.90;;;5.74;85.82;99853.41;4986250;28;20227;-68
2022/12/26 10:00:43;;;;;;;23.27;12.73;;;6.10;99.90;;;5.78;85.90;99834.69;4988990;28;20687;-65
2022/12/26 10:03:12;;;;;;;15.37;10.63;;;6.10;99.90;;;5.80;85.88;99831.31;4990163;28;20215;-65
2022/12/26 10:05:55;;;;;;;14.07;9.83;;;6.20;99.90;;;5.85;85.80;99838.13;4986597;28;20231;-68
2022/12/26 10:08:35;;;;;;;17.90;10.97;;;6.20;99.90;;;5.92;86.41;99832.19;4989431;28;20204;-65
2022/12/26 10:11:14;;;;;;;15.90;10.70;;;6.30;99.90;;;5.99;86.14;99833.97;4989761;28;20242;-67
2022/12/26 10:13:50;;;;;;;14.83;10.27;;;6.40;99.90;;;6.03;86.01;99828.00;4989997;28;20222;-65
2022/12/26 10:16:26;;;;;;;15.17;11.30;;;6.40;99.90;;;6.09;86.19;99832.31;4998343;28;20631;-67
2022/12/26 10:19:02;;;;;;;14.80;11.23;;;6.50;99.90;;;6.14;85.87;99825.47;4986846;28;20226;-67
2022/12/26 10:21:46;;;;;;;13.27;10.77;;;6.50;99.90;;;6.20;86.60;99826.34;4988820;28;20205;-66
2022/12/26 10:24:18;;;;;;;15.13;11.60;;;6.60;99.90;;;6.25;86.17;99814.41;4987404;28;20656;-66
2022/12/26 10:26:53;;;;;;;18.13;11.60;;;6.60;99.90;;;6.31;85.81;99823.81;4990510;28;20228;-63
2022/12/26 10:29:28;;;;;;;17.57;11.73;;;6.70;99.90;;;6.36;85.84;99821.28;4986514;28;20207;-65
2022/12/26 10:32:02;;;;;;;17.17;11.77;;;6.70;99.90;;;6.42;86.43;99805.94;5005161;28;20295;-66
2022/12/26 10:34:36;;;;;;;17.43;12.40;;;6.80;99.90;;;6.47;85.79;99801.66;5110969;28;20192;-66
2022/12/26 10:37:13;;;;;;;16.43;11.97;;;6.90;99.90;;;6.55;86.38;99805.09;5111841;28;20211;-65
2022/12/26 10:39:50;;;;;;;16.93;12.17;;;6.90;99.90;;;6.64;85.91;99799.97;5111886;28;20606;-67
2022/12/26 10:42:29;;;;;;;16.60;11.87;;;7.00;99.90;;;6.69;86.17;99790.59;5112990;28;20199;-67
2022/12/26 10:44:58;;;;;;;19.67;13.10;;;7.10;99.90;;;6.81;86.00;99794.84;5113250;28;20200;-68
2022/12/26 10:47:30;;;;;;;28.83;14.97;;;7.20;99.90;;;6.87;85.65;99781.19;5114214;28;20644;-64
2022/12/26 10:49:58;;;;;;;16.53;12.63;;;7.30;99.90;;;7.00;85.89;99785.47;5110304;28;20200;-68
2022/12/26 10:52:32;;;;;;;16.43;12.00;;;7.40;99.90;;;7.11;85.74;99777.78;5110456;28;20204;-64
2022/12/26 10:55:01;;;;;;;15.40;11.73;;;7.40;99.90;;;7.19;85.32;99768.34;5108339;28;20287;-65
2022/12/26 10:57:53;;;;;;;17.20;12.03;;;7.50;99.90;;;7.30;85.34;99760.63;5109137;28;20236;-68
2022/12/26 11:00:24;;;;;;;16.93;12.43;;;7.60;99.90;;;7.37;85.57;99762.31;5114884;28;20228;-69
2022/12/26 11:03:04;;;;;;;17.23;12.53;;;7.70;99.90;;;7.44;84.34;99776.81;5112697;28;20197;-68
2022/12/26 11:05:36;;;;;;;21.37;13.27;;;7.80;99.90;;;7.51;84.44;99768.22;5115490;28;20200;-69
2022/12/26 11:08:38;;;;;;;18.57;11.70;;;7.80;99.90;;;7.56;84.29;99781.91;5108607;28;20231;-67
2022/12/26 11:11:23;;;;;;;17.67;12.53;;;7.80;99.90;;;7.57;84.98;99768.22;5112021;28;20196;-67
2022/12/26 11:13:58;;;;;;;20.00;12.10;;;7.90;99.90;;;7.63;84.61;99767.34;5124550;28;20204;-67
2022/12/26 11:16:34;;;;;;;15.73;12.10;;;7.90;99.90;;;7.65;85.00;99769.03;5110958;28;20199;-65
2022/12/26 11:19:04;;;;;;;20.00;12.43;;;8.00;99.90;;;7.71;84.72;99775.88;5111270;28;20287;-66
2022/12/26 11:21:33;;;;;;;15.77;11.90;;;8.00;99.90;;;7.74;85.04;99761.31;5113536;28;20568;-67
2022/12/26 11:24:18;;;;;;;16.07;11.43;;;8.10;99.90;;;7.80;84.20;99764.69;5108789;28;20252;-72
2022/12/26 11:26:48;;;;;;;16.37;12.47;;;8.10;99.90;;;7.87;84.28;99758.69;5115484;28;20214;-70
2022/12/26 11:29:20;;;;;;;15.70;11.07;;;8.20;99.90;;;7.94;84.04;99763.75;5119122;28;20203;-69
2022/12/26 11:31:55;;;;;;;15.17;12.20;;;8.20;99.90;;;8.02;84.51;99763.72;5106605;28;20205;-68
2022/12/26 11:34:33;;;;;;;15.93;11.53;;;8.30;99.90;;;8.11;84.44;99766.25;5112472;28;20200;-68
2022/12/26 11:37:03;;;;;;;15.17;11.27;;;8.40;99.90;;;8.19;84.05;99772.19;5114966;28;20264;-65
2022/12/26 11:39:36;;;;;;;15.47;10.97;;;8.50;99.90;;;8.28;84.34;99767.84;5114907;28;20253;-69
2022/12/26 11:42:11;;;;;;;15.67;10.67;;;8.60;99.90;;;8.39;84.03;99760.94;5116238;28;20204;-69
2022/12/26 11:44:45;;;;;;;14.07;10.17;;;8.70;99.90;;;8.47;84.39;99761.78;5122176;28;20191;-70
2022/12/26 11:47:17;;;;;;;15.47;9.60;;;8.80;99.90;;;8.54;84.19;99755.69;5113979;28;20651;-71
2022/12/26 11:49:53;;;;;;;12.97;10.00;;;8.80;99.90;;;8.64;84.77;99753.91;5111092;28;20211;-69
2022/12/26 11:52:37;;;;;;;13.83;9.37;;;9.00;99.90;;;8.76;84.31;99751.22;5107720;28;20541;-69
2022/12/26 11:55:31;;;;;;;13.93;9.50;;;9.10;99.90;;;8.96;84.08;99743.34;5117664;28;20681;-73
2022/12/26 11:58:15;;;;;;;11.70;9.50;;;9.30;99.90;;;9.30;83.50;99736.13;5126703;28;20191;-74
2022/12/26 12:01:07;;;;;;;13.80;9.80;;;9.60;99.90;;;9.73;82.51;99727.03;5122990;28;20257;-71
2022/12/26 12:03:40;;;;;;;11.33;8.70;;;10.00;99.90;;;9.97;81.65;99725.84;5128098;28;20633;-73
2022/12/26 12:06:48;;;;;;;9.93;8.17;;;10.20;99.90;;;10.18;80.26;99719.53;5124364;28;20265;-69
2022/12/26 12:09:27;;;;;;;11.40;8.30;;;10.50;99.90;;;10.35;79.73;99718.44;5124793;28;20192;-73
2022/12/26 12:12:07;;;;;;;12.97;9.27;;;10.60;99.90;;;10.43;78.68;99720.91;5123121;28;20234;-70
2022/12/26 12:14:53;;;;;;;13.83;9.27;;;10.70;99.90;;;10.51;78.42;99713.88;5121598;28;20196;-72
2022/12/26 12:17:30;;;;;;;13.00;8.87;;;10.80;99.90;;;10.60;77.96;99713.75;5115456;28;20323;-75
2022/12/26 12:20:19;;;;;;;11.43;8.03;;;10.90;99.90;;;10.64;77.32;99717.97;5119750;28;20227;-72
2022/12/26 12:23:07;;;;;;;12.20;8.37;;;10.90;99.90;;;10.63;77.04;99717.97;5111832;28;20204;-68
2022/12/26 12:25:48;;;;;;;12.10;7.73;;;10.90;99.90;;;10.58;76.50;99730.94;5118638;28;20184;-72
2022/12/26 12:28:39;;;;;;;12.60;7.60;;;10.90;99.90;;;10.48;77.11;99724.22;5115352;28;20216;-75
2022/12/26 12:31:22;;;;;;;14.73;8.67;;;10.80;99.90;;;10.45;76.98;99726.00;5117352;28;20266;-71
2022/12/26 12:34:03;;;;;;;11.87;7.83;;;10.80;99.90;;;10.39;77.41;99729.53;5119378;28;20242;-74
2022/12/26 12:36:45;;;;;;;11.73;8.00;;;10.70;99.90;;;10.35;77.30;99733.06;5118940;28;20241;-79
2022/12/26 12:39:21;;;;;;;14.30;8.17;;;10.60;99.90;;;10.31;77.63;99733.94;5116635;28;20191;-72
2022/12/26 12:42:19;;;;;;;10.90;7.93;;;10.50;99.90;;;10.29;78.15;99733.13;5130545;28;20211;-72
2022/12/26 12:45:20;;;;;;;11.23;8.57;;;10.60;99.90;;;10.24;77.90;99738.31;5124414;28;20220;-74
2022/12/26 12:48:01;;;;;;;12.17;8.53;;;10.50;99.90;;;10.20;77.58;99730.66;5117501;28;20599;-71
2022/12/26 12:50:37;;;;;;;9.90;7.37;;;10.50;99.90;;;10.20;77.86;99740.94;5118515;28;20245;-75
2022/12/26 12:53:23;;;;;;;11.63;8.30;;;10.40;99.90;;;10.16;77.91;99741.03;5123810;28;20192;-71
2022/12/26 12:56:19;;;;;;;11.63;8.33;;;10.50;99.90;;;10.16;77.75;99738.44;5123155;28;20271;-75
2022/12/26 12:58:57;;;;;;;11.13;7.70;;;10.50;99.90;;;10.18;78.13;99753.00;5111913;28;20209;-69